SUMZM MYLS-MYCI
Flight info
| Callsign | SUMZM |
|---|---|
| Flight time | 0h 26m |
| Altitude | 13000 |
| Route | DUKKY |
| Aircraft | PC12/L-SDFGRWY/S |
Departure
| Time | 2026-05-06 21:15 |
|---|---|
| Airport | Stella Maris Airport (MYLS) |
Arrival
| Time | 2026-05-06 21:42 |
|---|---|
| Airport | Colonel Hill Airport (MYCI) |
| Time | Latitude | Longitude | Altitude | Speed | Heading |
|---|---|---|---|---|---|
| 2026-05-06 21:11 | 23.58197 | -75.26488 | 11 ft | 0 kts | 317° |
| 2026-05-06 21:13 | 23.58199 | -75.26491 | 11 ft | 5 kts | 314° |
| 2026-05-06 21:14 | 23.58151 | -75.26514 | 12 ft | 12 kts | 199° |
| 2026-05-06 21:14 | 23.58114 | -75.26554 | 11 ft | 8 kts | 282° |
| 2026-05-06 21:14 | 23.58120 | -75.26567 | 11 ft | 0 kts | 304° |
| 2026-05-06 21:14 | 23.58120 | -75.26568 | 11 ft | 0 kts | 304° |
| 2026-05-06 21:15 | 23.58245 | -75.26773 | 9 ft | 67 kts | 303° |
| 2026-05-06 21:15 | 23.58462 | -75.27134 | 20 ft | 99 kts | 303° |
| 2026-05-06 21:15 | 23.58325 | -75.28111 | 473 ft | 125 kts | 201° |
| 2026-05-06 21:15 | 23.57578 | -75.27746 | 883 ft | 139 kts | 120° |
| 2026-05-06 21:16 | 23.57253 | -75.26712 | 1436 ft | 145 kts | 100° |
| 2026-05-06 21:16 | 23.57194 | -75.25956 | 1791 ft | 154 kts | 88° |
| 2026-05-06 21:16 | 23.57124 | -75.24766 | 2154 ft | 166 kts | 103° |
| 2026-05-06 21:16 | 23.56669 | -75.23558 | 2533 ft | 179 kts | 117° |
| 2026-05-06 21:17 | 23.56050 | -75.22338 | 2899 ft | 188 kts | 120° |
| 2026-05-06 21:17 | 23.55397 | -75.21066 | 3274 ft | 195 kts | 119° |
| 2026-05-06 21:17 | 23.54741 | -75.19759 | 3627 ft | 199 kts | 118° |
| 2026-05-06 21:17 | 23.54006 | -75.18475 | 3987 ft | 200 kts | 134° |
| 2026-05-06 21:18 | 23.52836 | -75.17659 | 4356 ft | 201 kts | 155° |
| 2026-05-06 21:18 | 23.51540 | -75.17046 | 4730 ft | 204 kts | 157° |
| 2026-05-06 21:18 | 23.50247 | -75.16413 | 5090 ft | 205 kts | 155° |
| 2026-05-06 21:18 | 23.48952 | -75.15743 | 5446 ft | 207 kts | 155° |
| 2026-05-06 21:19 | 23.47651 | -75.15066 | 5811 ft | 207 kts | 155° |
| 2026-05-06 21:19 | 23.46360 | -75.14399 | 6173 ft | 208 kts | 155° |
| 2026-05-06 21:19 | 23.45050 | -75.13723 | 6541 ft | 209 kts | 156° |
| 2026-05-06 21:19 | 23.43735 | -75.13044 | 6888 ft | 209 kts | 156° |
| 2026-05-06 21:20 | 23.42417 | -75.12363 | 7243 ft | 209 kts | 156° |
| 2026-05-06 21:20 | 23.41101 | -75.11684 | 7594 ft | 209 kts | 156° |
| 2026-05-06 21:20 | 23.39784 | -75.11004 | 7953 ft | 210 kts | 156° |
| 2026-05-06 21:20 | 23.38453 | -75.10316 | 8318 ft | 212 kts | 156° |
| 2026-05-06 21:21 | 23.37115 | -75.09626 | 8687 ft | 213 kts | 156° |
| 2026-05-06 21:21 | 23.35766 | -75.08930 | 9054 ft | 214 kts | 156° |
| 2026-05-06 21:21 | 23.34419 | -75.08235 | 9434 ft | 215 kts | 157° |
| 2026-05-06 21:21 | 23.33079 | -75.07544 | 9810 ft | 215 kts | 157° |
| 2026-05-06 21:22 | 23.31727 | -75.06847 | 10160 ft | 216 kts | 157° |
| 2026-05-06 21:22 | 23.30364 | -75.06144 | 10514 ft | 216 kts | 157° |
| 2026-05-06 21:22 | 23.29006 | -75.05445 | 10860 ft | 217 kts | 156° |
| 2026-05-06 21:22 | 23.27650 | -75.04745 | 11208 ft | 217 kts | 156° |
| 2026-05-06 21:23 | 23.26276 | -75.04038 | 11564 ft | 218 kts | 156° |
| 2026-05-06 21:23 | 23.24907 | -75.03332 | 11928 ft | 218 kts | 156° |
| 2026-05-06 21:23 | 23.23532 | -75.02624 | 12291 ft | 219 kts | 156° |
| 2026-05-06 21:23 | 23.22155 | -75.01915 | 12659 ft | 219 kts | 156° |
| 2026-05-06 21:24 | 23.20772 | -75.01203 | 12982 ft | 223 kts | 156° |
| 2026-05-06 21:24 | 23.19317 | -75.00457 | 12994 ft | 238 kts | 156° |
| 2026-05-06 21:24 | 23.17798 | -74.99678 | 12998 ft | 248 kts | 156° |
| 2026-05-06 21:24 | 23.16199 | -74.98856 | 12999 ft | 254 kts | 156° |
| 2026-05-06 21:25 | 23.14613 | -74.98040 | 12999 ft | 258 kts | 156° |
| 2026-05-06 21:25 | 23.12977 | -74.97199 | 13002 ft | 261 kts | 156° |
| 2026-05-06 21:25 | 23.11332 | -74.96354 | 12998 ft | 262 kts | 156° |
| 2026-05-06 21:25 | 23.09673 | -74.95502 | 12996 ft | 263 kts | 156° |
| 2026-05-06 21:26 | 23.08014 | -74.94650 | 12998 ft | 264 kts | 156° |
| 2026-05-06 21:26 | 23.06354 | -74.93797 | 13002 ft | 264 kts | 156° |
| 2026-05-06 21:26 | 23.04691 | -74.92943 | 12999 ft | 265 kts | 156° |
| 2026-05-06 21:26 | 23.03105 | -74.92127 | 12996 ft | 265 kts | 156° |
| 2026-05-06 21:27 | 23.01679 | -74.91396 | 12999 ft | 265 kts | 156° |
| 2026-05-06 21:27 | 23.00011 | -74.90541 | 12999 ft | 265 kts | 156° |
| 2026-05-06 21:27 | 22.98345 | -74.89687 | 12998 ft | 265 kts | 156° |
| 2026-05-06 21:27 | 22.96676 | -74.88831 | 12996 ft | 265 kts | 156° |
| 2026-05-06 21:28 | 22.95012 | -74.87978 | 12996 ft | 265 kts | 156° |
| 2026-05-06 21:28 | 22.93341 | -74.87122 | 12998 ft | 265 kts | 156° |
| 2026-05-06 21:28 | 22.91679 | -74.86271 | 13001 ft | 265 kts | 156° |
| 2026-05-06 21:28 | 22.90015 | -74.85419 | 12997 ft | 265 kts | 156° |
| 2026-05-06 21:29 | 22.88372 | -74.84577 | 13000 ft | 265 kts | 156° |
| 2026-05-06 21:29 | 22.86706 | -74.83725 | 12998 ft | 264 kts | 156° |
| 2026-05-06 21:29 | 22.85056 | -74.82848 | 12993 ft | 263 kts | 149° |
| 2026-05-06 21:29 | 22.83864 | -74.81496 | 12985 ft | 234 kts | 117° |
| 2026-05-06 21:30 | 22.83459 | -74.79899 | 12876 ft | 215 kts | 98° |
| 2026-05-06 21:30 | 22.83238 | -74.78275 | 12555 ft | 222 kts | 99° |
| 2026-05-06 21:30 | 22.82956 | -74.76612 | 12235 ft | 226 kts | 101° |
| 2026-05-06 21:30 | 22.82635 | -74.74922 | 11920 ft | 230 kts | 102° |
| 2026-05-06 21:31 | 22.82316 | -74.73214 | 11606 ft | 232 kts | 101° |
| 2026-05-06 21:31 | 22.82008 | -74.71515 | 11292 ft | 233 kts | 101° |
| 2026-05-06 21:31 | 22.81690 | -74.69765 | 10992 ft | 234 kts | 101° |
| 2026-05-06 21:31 | 22.81375 | -74.68045 | 10688 ft | 229 kts | 102° |
| 2026-05-06 21:32 | 22.81078 | -74.66439 | 10382 ft | 213 kts | 102° |
| 2026-05-06 21:32 | 22.80532 | -74.63461 | 9768 ft | 191 kts | 102° |
| 2026-05-06 21:32 | 22.80278 | -74.62076 | 9436 ft | 185 kts | 102° |
| 2026-05-06 21:33 | 22.80031 | -74.60725 | 9101 ft | 180 kts | 102° |
| 2026-05-06 21:33 | 22.79791 | -74.59414 | 8781 ft | 176 kts | 102° |
| 2026-05-06 21:33 | 22.79553 | -74.58117 | 8460 ft | 180 kts | 102° |
| 2026-05-06 21:33 | 22.79300 | -74.56730 | 8155 ft | 195 kts | 102° |
| 2026-05-06 21:34 | 22.79028 | -74.55245 | 7840 ft | 205 kts | 102° |
| 2026-05-06 21:34 | 22.78745 | -74.53711 | 7535 ft | 210 kts | 102° |
| 2026-05-06 21:34 | 22.78462 | -74.52173 | 7232 ft | 210 kts | 102° |
| 2026-05-06 21:34 | 22.78173 | -74.50607 | 6924 ft | 209 kts | 102° |
| 2026-05-06 21:35 | 22.77895 | -74.49093 | 6626 ft | 207 kts | 102° |
| 2026-05-06 21:35 | 22.77624 | -74.47627 | 6313 ft | 189 kts | 102° |
| 2026-05-06 21:35 | 22.77375 | -74.46281 | 5991 ft | 177 kts | 102° |
| 2026-05-06 21:35 | 22.77140 | -74.45005 | 5671 ft | 169 kts | 101° |
| 2026-05-06 21:36 | 22.76912 | -74.43771 | 5353 ft | 164 kts | 101° |
| 2026-05-06 21:36 | 22.76683 | -74.42516 | 5048 ft | 179 kts | 101° |
| 2026-05-06 21:36 | 22.76429 | -74.41135 | 4743 ft | 194 kts | 101° |
| 2026-05-06 21:36 | 22.76158 | -74.39663 | 4428 ft | 202 kts | 101° |
| 2026-05-06 21:37 | 22.75879 | -74.38159 | 4110 ft | 205 kts | 101° |
| 2026-05-06 21:37 | 22.75598 | -74.36643 | 3796 ft | 206 kts | 101° |
| 2026-05-06 21:37 | 22.75322 | -74.35155 | 3477 ft | 194 kts | 101° |
| 2026-05-06 21:37 | 22.75064 | -74.33772 | 3161 ft | 180 kts | 100° |
| 2026-05-06 21:38 | 22.74820 | -74.32444 | 2847 ft | 186 kts | 100° |
| 2026-05-06 21:38 | 22.74560 | -74.31036 | 2537 ft | 192 kts | 100° |
| 2026-05-06 21:38 | 22.74306 | -74.29677 | 2221 ft | 178 kts | 100° |
| 2026-05-06 21:38 | 22.74071 | -74.28423 | 1904 ft | 159 kts | 99° |
| 2026-05-06 21:39 | 22.73988 | -74.27328 | 1586 ft | 135 kts | 83° |
| 2026-05-06 21:39 | 22.74060 | -74.26346 | 1261 ft | 126 kts | 83° |
| 2026-05-06 21:39 | 22.74115 | -74.25445 | 963 ft | 115 kts | 82° |
| 2026-05-06 21:39 | 22.74164 | -74.24618 | 797 ft | 100 kts | 82° |
| 2026-05-06 21:40 | 22.74218 | -74.23886 | 689 ft | 95 kts | 84° |
| 2026-05-06 21:40 | 22.74251 | -74.23176 | 715 ft | 98 kts | 83° |
| 2026-05-06 21:40 | 22.74310 | -74.22435 | 688 ft | 98 kts | 82° |
| 2026-05-06 21:40 | 22.74352 | -74.21718 | 534 ft | 93 kts | 85° |
| 2026-05-06 21:41 | 22.74380 | -74.21025 | 375 ft | 96 kts | 83° |
| 2026-05-06 21:41 | 22.74415 | -74.20314 | 312 ft | 92 kts | 85° |
| 2026-05-06 21:41 | 22.74460 | -74.19637 | 227 ft | 91 kts | 83° |
| 2026-05-06 21:41 | 22.74505 | -74.18956 | 67 ft | 86 kts | 84° |
| 2026-05-06 21:42 | 22.74547 | -74.18402 | 15 ft | 60 kts | 99° |
| 2026-05-06 21:42 | 22.74558 | -74.18064 | 14 ft | 32 kts | 83° |
| 2026-05-06 21:42 | 22.74574 | -74.17838 | 16 ft | 24 kts | 88° |
| 2026-05-06 21:42 | 22.74582 | -74.17691 | 14 ft | 17 kts | 72° |
| 2026-05-06 21:43 | 22.74655 | -74.17661 | 15 ft | 6 kts | 354° |
| 2026-05-06 21:43 | 22.74689 | -74.17665 | 15 ft | 0 kts | 354° |
| 2026-05-06 21:43 | 22.74696 | -74.17666 | 16 ft | 5 kts | 337° |
| 2026-05-06 21:44 | 22.74731 | -74.17715 | 14 ft | 1 kts | 359° |
| 2026-05-06 21:44 | 22.74733 | -74.17715 | 14 ft | 0 kts | 359° |